createdAt,value
2019-01-21T00:04:42.996Z,-8.47
2019-01-21T00:10:01.614Z,-8.50
2019-01-21T00:15:20.227Z,-8.70
2019-01-21T00:20:38.789Z,-8.77
2019-01-21T00:25:57.570Z,-8.62
2019-01-21T00:31:16.126Z,-8.43
2019-01-21T00:36:34.788Z,-8.57
2019-01-21T00:41:53.487Z,-8.35
2019-01-21T00:47:12.149Z,-8.09
2019-01-21T00:52:31.033Z,-8.24
2019-01-21T00:57:49.687Z,-8.69
2019-01-21T01:03:08.545Z,-8.77
2019-01-21T01:08:27.212Z,-8.68
2019-01-21T01:13:45.922Z,-8.85
2019-01-21T01:19:04.560Z,-8.64
2019-01-21T01:24:23.194Z,-8.53
2019-01-21T01:29:41.757Z,-8.66
2019-01-21T01:35:00.394Z,-8.96
2019-01-21T01:40:19.183Z,-9.24
2019-01-21T01:45:37.811Z,-9.13
2019-01-21T01:50:56.432Z,-8.92
2019-01-21T01:56:15.387Z,-9.08
2019-01-21T02:01:34.119Z,-9.11
2019-01-21T02:06:52.743Z,-8.87
2019-01-21T02:12:11.857Z,-9.09
2019-01-21T02:17:30.502Z,-9.16
2019-01-21T02:22:54.881Z,-9.26
2019-01-21T02:28:24.968Z,-9.01
2019-01-21T02:33:52.907Z,-9.17
2019-01-21T02:39:26.575Z,-9.35
2019-01-21T02:45:03.520Z,-8.86
2019-01-21T02:50:25.078Z,-8.87
2019-01-21T02:56:04.233Z,-8.81
2019-01-21T03:01:51.289Z,-8.89
2019-01-21T03:07:34.001Z,-9.33
2019-01-21T03:13:10.561Z,-9.37
2019-01-21T03:19:00.969Z,-9.48
2019-01-21T03:24:42.412Z,-9.11
2019-01-21T03:30:06.618Z,-9.11
2019-01-21T03:35:57.186Z,-9.17
2019-01-21T03:41:21.357Z,-8.95
2019-01-21T03:47:10.902Z,-9.49
2019-01-21T03:52:50.562Z,-9.59
2019-01-21T03:58:23.906Z,-9.35
2019-01-21T04:04:09.816Z,-9.41
2019-01-21T04:09:31.615Z,-9.45
2019-01-21T04:15:28.328Z,-9.53
2019-01-21T04:20:58.738Z,-9.77
2019-01-21T04:26:20.297Z,-9.61
2019-01-21T04:31:58.545Z,-9.30
2019-01-21T04:37:23.239Z,-9.24
2019-01-21T04:42:51.044Z,-9.30
2019-01-21T04:48:15.529Z,-9.43
2019-01-21T04:53:37.147Z,-9.44
2019-01-21T04:59:04.046Z,-9.15
2019-01-21T05:04:34.366Z,-9.00
2019-01-21T05:10:01.889Z,-9.43
2019-01-21T05:15:41.469Z,-9.53
2019-01-21T05:21:21.163Z,-9.21
2019-01-21T05:27:14.513Z,-9.54
2019-01-21T05:32:36.158Z,-9.42
2019-01-21T05:38:03.354Z,-9.33
2019-01-21T05:43:33.939Z,-9.23
2019-01-21T05:48:56.956Z,-9.03
2019-01-21T05:54:45.874Z,-9.39
2019-01-21T06:00:41.785Z,-9.33
2019-01-21T06:06:03.364Z,-9.40
2019-01-21T06:11:25.210Z,-9.35
2019-01-21T06:16:56.127Z,-9.22
2019-01-21T06:22:43.302Z,-9.33
2019-01-21T06:28:38.407Z,-8.99
2019-01-21T06:34:31.996Z,-8.78
2019-01-21T06:40:15.620Z,-9.19
2019-01-21T06:45:52.386Z,-9.21
2019-01-21T06:51:33.375Z,-8.78
2019-01-21T06:57:01.001Z,-8.96
2019-01-21T07:08:20.723Z,-9.06
2019-01-21T07:13:51.143Z,-8.97
2019-01-21T07:19:29.055Z,-9.22
2019-01-21T07:24:56.658Z,-9.08
2019-01-21T07:30:18.206Z,-8.85
2019-01-21T07:35:51.803Z,-8.77
2019-01-21T07:41:22.150Z,-8.42
2019-01-21T07:47:03.168Z,-8.72
2019-01-21T07:52:40.119Z,-8.74
2019-01-21T07:58:10.540Z,-8.39
2019-01-21T08:03:41.177Z,-8.39
2019-01-21T08:09:19.481Z,-8.24
2019-01-21T08:14:53.184Z,-8.02
2019-01-21T08:20:14.823Z,-8.07
2019-01-21T08:25:41.936Z,-7.93
2019-01-21T08:31:27.853Z,-7.43
2019-01-21T08:36:58.092Z,-6.77
2019-01-21T08:42:37.830Z,-4.77
2019-01-21T08:48:14.228Z,-3.15
2019-01-21T08:53:50.229Z,-1.64
2019-01-21T08:59:41.901Z,-1.37
2019-01-21T09:05:06.111Z,-0.06
2019-01-21T09:10:48.883Z,-0.81
2019-01-21T09:16:16.533Z,-1.70
2019-01-21T09:21:43.992Z,-0.82
2019-01-21T09:27:22.218Z,-1.76
2019-01-21T09:32:55.787Z,-1.76
2019-01-21T09:38:44.168Z,-1.31
2019-01-21T09:44:11.542Z,-2.37
2019-01-21T09:49:28.963Z,-2.20
2019-01-21T09:54:48.393Z,-2.16
2019-01-21T10:00:16.226Z,-1.28
2019-01-21T10:05:36.866Z,-1.14
2019-01-21T10:11:22.120Z,-0.60
2019-01-21T10:16:44.117Z,-0.54
2019-01-21T10:22:24.059Z,-0.34
2019-01-21T10:28:08.638Z,-0.41
2019-01-21T10:33:34.142Z,-0.26
2019-01-21T10:39:12.514Z,-0.21
2019-01-21T10:44:42.861Z,-0.30
2019-01-21T10:50:20.750Z,-0.31
2019-01-21T10:55:47.595Z,0.00
2019-01-21T11:01:09.132Z,0.39
2019-01-21T11:06:56.229Z,-0.21
2019-01-21T11:12:38.164Z,0.07
2019-01-21T11:18:02.814Z,0.16
2019-01-21T11:23:24.464Z,0.23
2019-01-21T11:29:13.763Z,0.07
2019-01-21T11:34:44.162Z,0.28
2019-01-21T11:40:17.700Z,0.06
2019-01-21T11:45:51.365Z,0.17
2019-01-21T11:51:25.373Z,0.13
2019-01-21T11:56:55.535Z,0.45
2019-01-21T12:02:26.072Z,0.60
2019-01-21T12:07:56.721Z,0.67
2019-01-21T12:13:27.372Z,0.86
2019-01-21T12:18:48.919Z,0.76
2019-01-21T12:24:10.626Z,0.91
2019-01-21T12:29:48.845Z,0.88
2019-01-21T12:35:16.308Z,0.85
2019-01-21T12:40:37.897Z,0.94
2019-01-21T12:46:02.547Z,1.05
2019-01-21T12:51:30.186Z,0.97
2019-01-21T12:56:57.742Z,0.96
2019-01-21T13:02:53.542Z,0.88
2019-01-21T13:08:17.741Z,1.00
2019-01-21T13:13:46.042Z,0.98
2019-01-21T13:19:25.849Z,0.98
2019-01-21T13:24:51.493Z,1.09
2019-01-21T13:30:22.067Z,1.18
2019-01-21T13:36:01.881Z,1.14
2019-01-21T13:41:26.254Z,1.03
2019-01-21T13:47:14.603Z,1.08
2019-01-21T13:53:00.576Z,1.00
2019-01-21T13:58:50.636Z,0.74
2019-01-21T14:04:41.072Z,0.85
2019-01-21T14:10:11.488Z,0.95
2019-01-21T14:15:49.626Z,0.76
2019-01-21T14:21:13.918Z,0.61
2019-01-21T14:27:10.773Z,0.53
2019-01-21T14:32:32.527Z,0.55
2019-01-21T14:38:03.117Z,0.38
2019-01-21T14:43:59.633Z,0.10
2019-01-21T14:49:27.387Z,0.13
2019-01-21T14:55:00.866Z,-0.07
2019-01-21T15:00:25.013Z,-0.04
2019-01-21T15:06:01.742Z,-0.22
2019-01-21T15:11:32.270Z,-0.36
2019-01-21T15:16:53.953Z,-0.45
2019-01-21T15:22:31.686Z,-0.45
2019-01-21T15:28:25.071Z,-0.76
2019-01-21T15:33:55.290Z,-1.12
2019-01-21T15:39:16.867Z,-1.12
2019-01-21T15:44:41.008Z,-1.36
2019-01-21T15:50:14.784Z,-1.58
2019-01-21T15:55:38.970Z,-1.63
2019-01-21T16:01:18.881Z,-1.74
2019-01-21T16:06:43.746Z,-1.81
2019-01-21T16:12:08.068Z,-2.25
2019-01-21T16:17:38.567Z,-2.48
2019-01-21T16:23:21.159Z,-2.59
2019-01-21T16:29:03.413Z,-2.58
2019-01-21T16:34:27.933Z,-2.74
2019-01-21T16:40:05.869Z,-2.95
2019-01-21T16:45:24.446Z,-2.98
2019-01-21T16:50:43.175Z,-2.87
2019-01-21T16:56:12.678Z,-2.74
2019-01-21T17:01:33.099Z,-2.69
2019-01-21T17:06:52.482Z,-2.92
2019-01-21T17:12:12.848Z,-2.87
2019-01-21T17:17:44.333Z,-2.88
2019-01-21T17:23:04.744Z,-3.13
2019-01-21T17:28:23.391Z,-3.23
2019-01-21T17:33:44.963Z,-3.21
2019-01-21T17:39:05.123Z,-3.30
2019-01-21T17:44:23.688Z,-3.45
2019-01-21T17:49:42.393Z,-3.27
2019-01-21T17:55:01.051Z,-3.46
2019-01-21T18:00:26.764Z,-3.67
2019-01-21T18:05:45.630Z,-3.59
2019-01-21T18:11:04.552Z,-3.63
2019-01-21T18:16:23.227Z,-3.68
2019-01-21T18:21:41.873Z,-3.79
2019-01-21T18:27:00.508Z,-3.76
2019-01-21T18:32:58.952Z,-3.70
2019-01-21T18:38:17.561Z,-3.89
2019-01-21T18:43:36.205Z,-4.15
2019-01-21T18:48:55.262Z,-4.25
2019-01-21T18:54:13.990Z,-4.06
2019-01-21T18:59:32.623Z,-4.27
2019-01-21T19:04:51.396Z,-4.52
2019-01-21T19:10:12.747Z,-4.44
2019-01-21T19:15:32.871Z,-4.40
2019-01-21T19:20:51.813Z,-4.55
2019-01-21T19:26:10.712Z,-4.46
2019-01-21T19:31:29.517Z,-4.61
2019-01-21T19:36:48.201Z,-4.68
2019-01-21T19:42:06.832Z,-4.69
2019-01-21T19:47:25.990Z,-4.94
2019-01-21T19:52:44.660Z,-4.72
2019-01-21T19:58:03.271Z,-4.72
2019-01-21T20:03:24.422Z,-5.32
2019-01-21T20:08:43.166Z,-5.25
2019-01-21T20:14:01.828Z,-5.34
2019-01-21T20:19:21.836Z,-5.08
2019-01-21T20:24:40.537Z,-5.32
2019-01-21T20:29:59.070Z,-5.35
2019-01-21T20:35:18.906Z,-5.52
2019-01-21T20:40:45.116Z,-5.57
2019-01-21T20:46:04.267Z,-5.42
2019-01-21T20:51:34.627Z,-5.66
2019-01-21T20:56:54.639Z,-6.20
2019-01-21T21:02:13.321Z,-6.28
2019-01-21T21:07:31.865Z,-6.36
2019-01-21T21:12:50.507Z,-6.42
2019-01-21T21:18:10.761Z,-6.53
2019-01-21T21:23:29.719Z,-6.43
2019-01-21T21:34:05.156Z,-6.22
2019-01-21T21:39:23.889Z,-5.92
2019-01-21T21:44:42.479Z,-6.30
2019-01-21T21:50:01.158Z,-5.83
2019-01-21T21:55:19.826Z,-5.54
2019-01-21T22:00:38.486Z,-5.54
2019-01-21T22:05:57.121Z,-5.67
2019-01-21T22:11:15.737Z,-5.62
2019-01-21T22:16:34.464Z,-5.59
2019-01-21T22:21:52.990Z,-5.56
2019-01-21T22:27:11.650Z,-5.66
2019-01-21T22:32:30.318Z,-5.62
2019-01-21T22:37:48.946Z,-5.65
2019-01-21T22:43:07.596Z,-5.59
2019-01-21T22:48:26.213Z,-5.64
2019-01-21T22:53:44.831Z,-5.68
2019-01-21T22:59:03.474Z,-5.73
2019-01-21T23:04:22.417Z,-5.48
2019-01-21T23:09:41.314Z,-5.14
2019-01-21T23:15:00.066Z,-5.00
2019-01-21T23:20:18.885Z,-4.93
2019-01-21T23:25:37.511Z,-4.90
2019-01-21T23:30:56.177Z,-5.22
2019-01-21T23:36:14.822Z,-5.34
2019-01-21T23:41:33.499Z,-5.81
2019-01-21T23:46:52.054Z,-5.75
2019-01-21T23:52:10.693Z,-5.89
2019-01-21T23:57:29.261Z,-5.71
